sensor_id;sensor_type;location;lat;lon;timestamp;P1;durP1;ratioP1;P2;durP2;ratioP2
54613;SDS011;40514;52.758;6.360;2022-12-05T00:00:58;24.35;;;14.60;;
54613;SDS011;40514;52.758;6.360;2022-12-05T00:03:35;23.63;;;13.93;;
54613;SDS011;40514;52.758;6.360;2022-12-05T00:06:02;24.77;;;14.80;;
54613;SDS011;40514;52.758;6.360;2022-12-05T00:08:28;26.27;;;14.43;;
54613;SDS011;40514;52.758;6.360;2022-12-05T00:10:53;24.43;;;14.43;;
54613;SDS011;40514;52.758;6.360;2022-12-05T00:13:19;28.43;;;13.90;;
54613;SDS011;40514;52.758;6.360;2022-12-05T00:15:44;24.57;;;13.47;;
54613;SDS011;40514;52.758;6.360;2022-12-05T00:18:10;24.63;;;13.73;;
54613;SDS011;40514;52.758;6.360;2022-12-05T00:20:35;29.10;;;14.70;;
54613;SDS011;40514;52.758;6.360;2022-12-05T00:23:01;22.70;;;13.70;;
54613;SDS011;40514;52.758;6.360;2022-12-05T00:25:26;25.60;;;14.37;;
54613;SDS011;40514;52.758;6.360;2022-12-05T00:27:52;21.93;;;13.17;;
54613;SDS011;40514;52.758;6.360;2022-12-05T00:30:17;22.67;;;12.43;;
54613;SDS011;40514;52.758;6.360;2022-12-05T00:32:43;22.30;;;12.23;;
54613;SDS011;40514;52.758;6.360;2022-12-05T00:35:09;23.23;;;12.97;;
54613;SDS011;40514;52.758;6.360;2022-12-05T00:37:34;21.47;;;12.50;;
54613;SDS011;40514;52.758;6.360;2022-12-05T00:40:00;21.90;;;12.50;;
54613;SDS011;40514;52.758;6.360;2022-12-05T00:42:25;22.03;;;12.47;;
54613;SDS011;40514;52.758;6.360;2022-12-05T00:44:51;24.07;;;13.13;;
54613;SDS011;40514;52.758;6.360;2022-12-05T00:47:17;19.83;;;11.30;;
54613;SDS011;40514;52.758;6.360;2022-12-05T00:49:43;21.43;;;12.53;;
54613;SDS011;40514;52.758;6.360;2022-12-05T00:52:08;21.80;;;12.53;;
54613;SDS011;40514;52.758;6.360;2022-12-05T00:54:34;19.77;;;12.33;;
54613;SDS011;40514;52.758;6.360;2022-12-05T00:56:59;21.83;;;12.40;;
54613;SDS011;40514;52.758;6.360;2022-12-05T00:59:25;21.30;;;12.47;;
54613;SDS011;40514;52.758;6.360;2022-12-05T01:01:50;23.83;;;12.93;;
54613;SDS011;40514;52.758;6.360;2022-12-05T01:04:17;26.07;;;12.53;;
54613;SDS011;40514;52.758;6.360;2022-12-05T01:06:45;21.85;;;12.68;;
54613;SDS011;40514;52.758;6.360;2022-12-05T01:09:12;22.52;;;12.70;;
54613;SDS011;40514;52.758;6.360;2022-12-05T01:11:41;22.67;;;12.82;;
54613;SDS011;40514;52.758;6.360;2022-12-05T01:14:07;20.50;;;12.67;;
54613;SDS011;40514;52.758;6.360;2022-12-05T01:16:34;20.92;;;12.65;;
54613;SDS011;40514;52.758;6.360;2022-12-05T01:19:03;22.48;;;13.18;;
54613;SDS011;40514;52.758;6.360;2022-12-05T01:21:31;24.23;;;12.98;;
54613;SDS011;40514;52.758;6.360;2022-12-05T01:23:57;22.77;;;12.77;;
54613;SDS011;40514;52.758;6.360;2022-12-05T01:26:22;23.30;;;13.50;;
54613;SDS011;40514;52.758;6.360;2022-12-05T01:28:48;23.20;;;13.70;;
54613;SDS011;40514;52.758;6.360;2022-12-05T01:33:49;23.05;;;13.85;;
54613;SDS011;40514;52.758;6.360;2022-12-05T01:36:16;21.08;;;13.07;;
54613;SDS011;40514;52.758;6.360;2022-12-05T01:38:43;24.30;;;14.02;;
54613;SDS011;40514;52.758;6.360;2022-12-05T01:41:16;25.23;;;14.75;;
54613;SDS011;40514;52.758;6.360;2022-12-05T01:43:55;26.05;;;14.95;;
54613;SDS011;40514;52.758;6.360;2022-12-05T01:46:22;26.52;;;14.85;;
54613;SDS011;40514;52.758;6.360;2022-12-05T01:48:49;29.92;;;15.85;;
54613;SDS011;40514;52.758;6.360;2022-12-05T01:51:17;27.60;;;15.32;;
54613;SDS011;40514;52.758;6.360;2022-12-05T01:53:43;25.73;;;14.90;;
54613;SDS011;40514;52.758;6.360;2022-12-05T01:56:08;29.30;;;15.40;;
54613;SDS011;40514;52.758;6.360;2022-12-05T01:58:35;29.73;;;15.95;;
54613;SDS011;40514;52.758;6.360;2022-12-05T02:01:03;27.45;;;15.60;;
54613;SDS011;40514;52.758;6.360;2022-12-05T02:03:29;27.70;;;15.23;;
54613;SDS011;40514;52.758;6.360;2022-12-05T02:05:55;30.30;;;16.27;;
54613;SDS011;40514;52.758;6.360;2022-12-05T02:08:22;29.98;;;16.35;;
54613;SDS011;40514;52.758;6.360;2022-12-05T02:10:51;28.77;;;16.42;;
54613;SDS011;40514;52.758;6.360;2022-12-05T02:26:38;28.70;;;16.70;;
54613;SDS011;40514;52.758;6.360;2022-12-05T02:29:14;29.95;;;16.52;;
54613;SDS011;40514;52.758;6.360;2022-12-05T02:32:03;30.88;;;17.48;;
54613;SDS011;40514;52.758;6.360;2022-12-05T02:34:40;30.77;;;16.75;;
54613;SDS011;40514;52.758;6.360;2022-12-05T02:37:18;32.60;;;17.25;;
54613;SDS011;40514;52.758;6.360;2022-12-05T02:40:13;31.77;;;17.70;;
54613;SDS011;40514;52.758;6.360;2022-12-05T02:42:54;30.13;;;16.73;;
54613;SDS011;40514;52.758;6.360;2022-12-05T02:45:26;34.15;;;18.05;;
54613;SDS011;40514;52.758;6.360;2022-12-05T02:47:54;31.20;;;17.27;;
54613;SDS011;40514;52.758;6.360;2022-12-05T02:50:24;37.05;;;18.35;;
54613;SDS011;40514;52.758;6.360;2022-12-05T02:52:55;36.40;;;18.42;;
54613;SDS011;40514;52.758;6.360;2022-12-05T02:55:24;32.67;;;17.63;;
54613;SDS011;40514;52.758;6.360;2022-12-05T02:57:54;32.97;;;17.55;;
54613;SDS011;40514;52.758;6.360;2022-12-05T03:00:22;36.83;;;18.48;;
54613;SDS011;40514;52.758;6.360;2022-12-05T03:02:49;33.47;;;18.13;;
54613;SDS011;40514;52.758;6.360;2022-12-05T03:07:49;34.92;;;18.15;;
54613;SDS011;40514;52.758;6.360;2022-12-05T03:10:18;35.80;;;19.02;;
54613;SDS011;40514;52.758;6.360;2022-12-05T03:12:49;35.33;;;18.13;;
54613;SDS011;40514;52.758;6.360;2022-12-05T03:15:30;36.45;;;18.48;;
54613;SDS011;40514;52.758;6.360;2022-12-05T03:18:12;36.70;;;18.60;;
54613;SDS011;40514;52.758;6.360;2022-12-05T03:20:51;38.90;;;19.35;;
54613;SDS011;40514;52.758;6.360;2022-12-05T03:23:24;36.47;;;18.75;;
54613;SDS011;40514;52.758;6.360;2022-12-05T03:26:15;36.35;;;19.38;;
54613;SDS011;40514;52.758;6.360;2022-12-05T03:29:18;40.05;;;19.45;;
54613;SDS011;40514;52.758;6.360;2022-12-05T03:32:05;42.30;;;20.52;;
54613;SDS011;40514;52.758;6.360;2022-12-05T03:34:42;35.00;;;18.80;;
54613;SDS011;40514;52.758;6.360;2022-12-05T03:37:12;38.60;;;20.15;;
54613;SDS011;40514;52.758;6.360;2022-12-05T03:40:09;41.03;;;20.42;;
54613;SDS011;40514;52.758;6.360;2022-12-05T03:42:50;39.22;;;19.85;;
54613;SDS011;40514;52.758;6.360;2022-12-05T03:45:25;37.40;;;19.63;;
54613;SDS011;40514;52.758;6.360;2022-12-05T03:48:06;37.92;;;19.38;;
54613;SDS011;40514;52.758;6.360;2022-12-05T03:50:43;35.78;;;19.25;;
54613;SDS011;40514;52.758;6.360;2022-12-05T03:53:16;37.10;;;19.67;;
54613;SDS011;40514;52.758;6.360;2022-12-05T03:55:48;38.28;;;19.73;;
54613;SDS011;40514;52.758;6.360;2022-12-05T03:58:22;36.58;;;18.65;;
54613;SDS011;40514;52.758;6.360;2022-12-05T04:00:53;35.13;;;19.35;;
54613;SDS011;40514;52.758;6.360;2022-12-05T04:03:41;36.72;;;17.95;;
54613;SDS011;40514;52.758;6.360;2022-12-05T04:06:21;39.22;;;19.55;;
54613;SDS011;40514;52.758;6.360;2022-12-05T04:08:55;35.28;;;18.20;;
54613;SDS011;40514;52.758;6.360;2022-12-05T04:11:24;34.10;;;17.95;;
54613;SDS011;40514;52.758;6.360;2022-12-05T04:13:53;33.78;;;17.60;;
54613;SDS011;40514;52.758;6.360;2022-12-05T04:16:24;35.22;;;17.50;;
54613;SDS011;40514;52.758;6.360;2022-12-05T04:19:25;31.13;;;16.50;;
54613;SDS011;40514;52.758;6.360;2022-12-05T04:22:15;28.17;;;15.65;;
54613;SDS011;40514;52.758;6.360;2022-12-05T04:24:42;28.13;;;15.35;;
54613;SDS011;40514;52.758;6.360;2022-12-05T04:27:40;28.45;;;14.60;;
54613;SDS011;40514;52.758;6.360;2022-12-05T04:30:10;26.10;;;14.68;;
54613;SDS011;40514;52.758;6.360;2022-12-05T04:32:59;26.25;;;14.68;;
54613;SDS011;40514;52.758;6.360;2022-12-05T04:35:34;25.98;;;14.73;;
54613;SDS011;40514;52.758;6.360;2022-12-05T04:38:07;25.77;;;14.15;;
54613;SDS011;40514;52.758;6.360;2022-12-05T04:40:53;23.95;;;13.57;;
54613;SDS011;40514;52.758;6.360;2022-12-05T04:43:23;22.58;;;13.75;;
54613;SDS011;40514;52.758;6.360;2022-12-05T04:45:50;22.77;;;12.75;;
54613;SDS011;40514;52.758;6.360;2022-12-05T04:48:18;21.98;;;13.00;;
54613;SDS011;40514;52.758;6.360;2022-12-05T04:50:46;18.80;;;12.50;;
54613;SDS011;40514;52.758;6.360;2022-12-05T04:53:15;21.52;;;11.95;;
54613;SDS011;40514;52.758;6.360;2022-12-05T04:55:44;19.05;;;11.48;;
54613;SDS011;40514;52.758;6.360;2022-12-05T04:58:14;18.85;;;11.43;;
54613;SDS011;40514;52.758;6.360;2022-12-05T05:06:04;19.58;;;11.57;;
54613;SDS011;40514;52.758;6.360;2022-12-05T05:08:31;19.73;;;11.27;;
54613;SDS011;40514;52.758;6.360;2022-12-05T05:11:00;17.47;;;11.10;;
54613;SDS011;40514;52.758;6.360;2022-12-05T05:13:28;17.77;;;10.55;;
54613;SDS011;40514;52.758;6.360;2022-12-05T05:15:53;18.23;;;11.17;;
54613;SDS011;40514;52.758;6.360;2022-12-05T05:18:19;16.90;;;10.87;;
54613;SDS011;40514;52.758;6.360;2022-12-05T05:20:44;15.93;;;10.70;;
54613;SDS011;40514;52.758;6.360;2022-12-05T05:23:10;17.50;;;11.03;;
54613;SDS011;40514;52.758;6.360;2022-12-05T05:25:35;17.23;;;10.83;;
54613;SDS011;40514;52.758;6.360;2022-12-05T05:28:01;15.87;;;11.10;;
54613;SDS011;40514;52.758;6.360;2022-12-05T05:30:26;14.93;;;10.20;;
54613;SDS011;40514;52.758;6.360;2022-12-05T05:32:52;15.10;;;10.37;;
54613;SDS011;40514;52.758;6.360;2022-12-05T05:35:18;16.83;;;10.57;;
54613;SDS011;40514;52.758;6.360;2022-12-05T05:37:44;15.77;;;10.10;;
54613;SDS011;40514;52.758;6.360;2022-12-05T05:40:11;16.07;;;9.80;;
54613;SDS011;40514;52.758;6.360;2022-12-05T05:42:41;14.73;;;9.50;;
54613;SDS011;40514;52.758;6.360;2022-12-05T05:45:10;15.15;;;8.88;;
54613;SDS011;40514;52.758;6.360;2022-12-05T05:47:37;12.68;;;8.43;;
54613;SDS011;40514;52.758;6.360;2022-12-05T05:50:03;13.43;;;7.97;;
54613;SDS011;40514;52.758;6.360;2022-12-05T05:52:36;11.82;;;8.18;;
54613;SDS011;40514;52.758;6.360;2022-12-05T05:55:02;9.90;;;7.03;;
54613;SDS011;40514;52.758;6.360;2022-12-05T05:57:30;10.45;;;6.90;;
54613;SDS011;40514;52.758;6.360;2022-12-05T05:59:55;10.00;;;6.43;;
54613;SDS011;40514;52.758;6.360;2022-12-05T06:02:21;9.43;;;6.23;;
54613;SDS011;40514;52.758;6.360;2022-12-05T06:04:46;9.10;;;5.90;;
54613;SDS011;40514;52.758;6.360;2022-12-05T06:07:12;8.90;;;6.10;;
54613;SDS011;40514;52.758;6.360;2022-12-05T06:09:38;9.17;;;5.93;;
54613;SDS011;40514;52.758;6.360;2022-12-05T06:12:03;11.83;;;5.77;;
54613;SDS011;40514;52.758;6.360;2022-12-05T06:14:29;8.20;;;5.63;;
54613;SDS011;40514;52.758;6.360;2022-12-05T06:16:55;8.37;;;5.63;;
54613;SDS011;40514;52.758;6.360;2022-12-05T06:19:20;7.63;;;5.23;;
54613;SDS011;40514;52.758;6.360;2022-12-05T06:21:49;7.70;;;5.20;;
54613;SDS011;40514;52.758;6.360;2022-12-05T06:24:16;8.18;;;5.32;;
54613;SDS011;40514;52.758;6.360;2022-12-05T06:26:41;8.65;;;5.95;;
54613;SDS011;40514;52.758;6.360;2022-12-05T06:29:07;7.67;;;5.47;;
54613;SDS011;40514;52.758;6.360;2022-12-05T06:31:33;8.00;;;5.87;;
54613;SDS011;40514;52.758;6.360;2022-12-05T06:33:59;7.67;;;5.30;;
54613;SDS011;40514;52.758;6.360;2022-12-05T06:36:26;8.38;;;5.95;;
54613;SDS011;40514;52.758;6.360;2022-12-05T06:38:54;9.23;;;5.97;;
54613;SDS011;40514;52.758;6.360;2022-12-05T06:41:23;8.25;;;5.78;;
54613;SDS011;40514;52.758;6.360;2022-12-05T06:43:53;8.15;;;5.93;;
54613;SDS011;40514;52.758;6.360;2022-12-05T06:46:20;8.77;;;5.72;;
54613;SDS011;40514;52.758;6.360;2022-12-05T06:48:46;9.68;;;5.47;;
54613;SDS011;40514;52.758;6.360;2022-12-05T06:51:13;7.87;;;5.73;;
54613;SDS011;40514;52.758;6.360;2022-12-05T06:53:40;8.50;;;6.07;;
54613;SDS011;40514;52.758;6.360;2022-12-05T06:56:07;9.30;;;5.80;;
54613;SDS011;40514;52.758;6.360;2022-12-05T06:58:35;8.38;;;5.13;;
54613;SDS011;40514;52.758;6.360;2022-12-05T07:01:01;8.90;;;5.33;;
54613;SDS011;40514;52.758;6.360;2022-12-05T07:03:47;8.05;;;5.25;;
54613;SDS011;40514;52.758;6.360;2022-12-05T07:06:13;8.38;;;5.80;;
54613;SDS011;40514;52.758;6.360;2022-12-05T07:08:39;8.07;;;5.25;;
54613;SDS011;40514;52.758;6.360;2022-12-05T07:11:05;7.77;;;5.33;;
54613;SDS011;40514;52.758;6.360;2022-12-05T07:13:32;7.30;;;4.60;;
54613;SDS011;40514;52.758;6.360;2022-12-05T07:15:57;8.60;;;5.17;;
54613;SDS011;40514;52.758;6.360;2022-12-05T07:18:23;6.93;;;4.50;;
54613;SDS011;40514;52.758;6.360;2022-12-05T07:20:56;8.20;;;4.38;;
54613;SDS011;40514;52.758;6.360;2022-12-05T07:23:26;7.20;;;4.45;;
54613;SDS011;40514;52.758;6.360;2022-12-05T07:25:52;6.47;;;4.37;;
54613;SDS011;40514;52.758;6.360;2022-12-05T07:28:18;6.93;;;4.35;;
54613;SDS011;40514;52.758;6.360;2022-12-05T07:30:43;7.00;;;4.43;;
54613;SDS011;40514;52.758;6.360;2022-12-05T07:33:09;8.80;;;4.70;;
54613;SDS011;40514;52.758;6.360;2022-12-05T07:35:34;7.10;;;4.83;;
54613;SDS011;40514;52.758;6.360;2022-12-05T07:38:00;7.70;;;4.40;;
54613;SDS011;40514;52.758;6.360;2022-12-05T07:40:26;6.80;;;4.27;;
54613;SDS011;40514;52.758;6.360;2022-12-05T07:42:51;7.17;;;4.37;;
54613;SDS011;40514;52.758;6.360;2022-12-05T07:45:17;7.60;;;4.67;;
54613;SDS011;40514;52.758;6.360;2022-12-05T07:47:44;7.10;;;4.50;;
54613;SDS011;40514;52.758;6.360;2022-12-05T07:50:10;6.40;;;3.90;;
54613;SDS011;40514;52.758;6.360;2022-12-05T07:52:35;7.33;;;4.40;;
54613;SDS011;40514;52.758;6.360;2022-12-05T07:55:01;6.77;;;4.10;;
54613;SDS011;40514;52.758;6.360;2022-12-05T07:57:28;6.77;;;4.17;;
54613;SDS011;40514;52.758;6.360;2022-12-05T07:59:54;6.63;;;4.53;;
54613;SDS011;40514;52.758;6.360;2022-12-05T08:02:20;7.53;;;5.13;;
54613;SDS011;40514;52.758;6.360;2022-12-05T08:04:45;7.90;;;5.07;;
54613;SDS011;40514;52.758;6.360;2022-12-05T08:07:11;7.40;;;5.33;;
54613;SDS011;40514;52.758;6.360;2022-12-05T08:09:36;9.30;;;5.47;;
54613;SDS011;40514;52.758;6.360;2022-12-05T08:12:02;8.07;;;5.20;;
54613;SDS011;40514;52.758;6.360;2022-12-05T08:14:28;7.77;;;5.10;;
54613;SDS011;40514;52.758;6.360;2022-12-05T08:16:53;8.33;;;5.30;;
54613;SDS011;40514;52.758;6.360;2022-12-05T08:19:19;8.77;;;5.30;;
54613;SDS011;40514;52.758;6.360;2022-12-05T08:21:45;8.90;;;5.60;;
54613;SDS011;40514;52.758;6.360;2022-12-05T08:24:11;10.07;;;5.80;;
54613;SDS011;40514;52.758;6.360;2022-12-05T08:26:37;8.00;;;5.50;;
54613;SDS011;40514;52.758;6.360;2022-12-05T08:29:07;8.47;;;5.40;;
54613;SDS011;40514;52.758;6.360;2022-12-05T08:31:39;10.85;;;5.88;;
54613;SDS011;40514;52.758;6.360;2022-12-05T08:34:06;9.40;;;6.03;;
54613;SDS011;40514;52.758;6.360;2022-12-05T08:36:32;8.80;;;5.63;;
54613;SDS011;40514;52.758;6.360;2022-12-05T08:38:58;10.23;;;6.20;;
54613;SDS011;40514;52.758;6.360;2022-12-05T08:41:25;9.70;;;5.90;;
54613;SDS011;40514;52.758;6.360;2022-12-05T08:43:54;12.98;;;6.40;;
54613;SDS011;40514;52.758;6.360;2022-12-05T08:46:21;11.18;;;6.25;;
54613;SDS011;40514;52.758;6.360;2022-12-05T08:48:46;9.70;;;6.10;;
54613;SDS011;40514;52.758;6.360;2022-12-05T08:51:12;9.17;;;5.73;;
54613;SDS011;40514;52.758;6.360;2022-12-05T08:53:38;10.10;;;6.22;;
54613;SDS011;40514;52.758;6.360;2022-12-05T08:56:05;10.32;;;6.18;;
54613;SDS011;40514;52.758;6.360;2022-12-05T08:58:33;9.25;;;6.13;;
54613;SDS011;40514;52.758;6.360;2022-12-05T09:01:12;12.88;;;6.70;;
54613;SDS011;40514;52.758;6.360;2022-12-05T09:03:42;11.30;;;6.30;;
54613;SDS011;40514;52.758;6.360;2022-12-05T09:06:12;11.98;;;6.10;;
54613;SDS011;40514;52.758;6.360;2022-12-05T09:08:38;9.55;;;5.95;;
54613;SDS011;40514;52.758;6.360;2022-12-05T09:11:05;10.05;;;5.93;;
54613;SDS011;40514;52.758;6.360;2022-12-05T09:13:32;11.40;;;5.90;;
54613;SDS011;40514;52.758;6.360;2022-12-05T09:15:58;11.40;;;6.67;;
54613;SDS011;40514;52.758;6.360;2022-12-05T09:18:28;10.63;;;7.00;;
54613;SDS011;40514;52.758;6.360;2022-12-05T09:20:53;11.73;;;6.30;;
54613;SDS011;40514;52.758;6.360;2022-12-05T09:23:19;12.07;;;5.93;;
54613;SDS011;40514;52.758;6.360;2022-12-05T09:25:51;11.83;;;6.20;;
54613;SDS011;40514;52.758;6.360;2022-12-05T09:28:18;10.20;;;5.72;;
54613;SDS011;40514;52.758;6.360;2022-12-05T09:30:43;12.93;;;6.50;;
54613;SDS011;40514;52.758;6.360;2022-12-05T09:33:09;10.10;;;5.90;;
54613;SDS011;40514;52.758;6.360;2022-12-05T09:35:38;9.73;;;5.47;;
54613;SDS011;40514;52.758;6.360;2022-12-05T09:38:04;10.88;;;5.85;;
54613;SDS011;40514;52.758;6.360;2022-12-05T09:40:29;10.00;;;5.63;;
54613;SDS011;40514;52.758;6.360;2022-12-05T09:43:02;11.80;;;6.27;;
54613;SDS011;40514;52.758;6.360;2022-12-05T09:45:34;11.32;;;6.40;;
54613;SDS011;40514;52.758;6.360;2022-12-05T09:48:10;10.13;;;6.32;;
54613;SDS011;40514;52.758;6.360;2022-12-05T09:50:43;10.88;;;6.03;;
54613;SDS011;40514;52.758;6.360;2022-12-05T09:53:26;11.02;;;6.53;;
54613;SDS011;40514;52.758;6.360;2022-12-05T09:56:20;11.20;;;5.93;;
54613;SDS011;40514;52.758;6.360;2022-12-05T09:58:51;9.43;;;6.25;;
54613;SDS011;40514;52.758;6.360;2022-12-05T10:04:57;9.32;;;5.95;;
54613;SDS011;40514;52.758;6.360;2022-12-05T10:15:37;8.52;;;5.72;;
54613;SDS011;40514;52.758;6.360;2022-12-05T10:20:35;9.17;;;6.00;;
54613;SDS011;40514;52.758;6.360;2022-12-05T10:23:14;9.88;;;5.70;;
54613;SDS011;40514;52.758;6.360;2022-12-05T10:25:45;9.40;;;6.13;;
54613;SDS011;40514;52.758;6.360;2022-12-05T10:28:17;9.68;;;5.85;;
54613;SDS011;40514;52.758;6.360;2022-12-05T10:30:59;9.75;;;5.68;;
54613;SDS011;40514;52.758;6.360;2022-12-05T10:33:32;9.95;;;5.97;;
54613;SDS011;40514;52.758;6.360;2022-12-05T10:36:08;10.85;;;6.10;;
54613;SDS011;40514;52.758;6.360;2022-12-05T10:38:34;10.45;;;6.00;;
54613;SDS011;40514;52.758;6.360;2022-12-05T10:41:03;10.50;;;6.50;;
54613;SDS011;40514;52.758;6.360;2022-12-05T10:43:32;10.30;;;6.45;;
54613;SDS011;40514;52.758;6.360;2022-12-05T10:45:59;10.27;;;6.15;;
54613;SDS011;40514;52.758;6.360;2022-12-05T10:50:52;10.40;;;5.95;;
54613;SDS011;40514;52.758;6.360;2022-12-05T10:53:22;9.07;;;6.05;;
54613;SDS011;40514;52.758;6.360;2022-12-05T10:55:53;9.32;;;5.90;;
54613;SDS011;40514;52.758;6.360;2022-12-05T10:58:20;10.35;;;5.93;;
54613;SDS011;40514;52.758;6.360;2022-12-05T11:00:54;11.70;;;6.00;;
54613;SDS011;40514;52.758;6.360;2022-12-05T11:03:26;10.90;;;5.65;;
54613;SDS011;40514;52.758;6.360;2022-12-05T11:05:52;9.70;;;5.75;;
54613;SDS011;40514;52.758;6.360;2022-12-05T11:08:22;8.80;;;5.82;;
54613;SDS011;40514;52.758;6.360;2022-12-05T11:10:57;11.80;;;6.07;;
54613;SDS011;40514;52.758;6.360;2022-12-05T11:13:26;9.10;;;5.32;;
54613;SDS011;40514;52.758;6.360;2022-12-05T11:15:52;9.60;;;5.07;;
54613;SDS011;40514;52.758;6.360;2022-12-05T11:18:26;10.63;;;5.67;;
54613;SDS011;40514;52.758;6.360;2022-12-05T11:20:54;9.55;;;5.63;;
54613;SDS011;40514;52.758;6.360;2022-12-05T11:23:23;9.38;;;5.70;;
54613;SDS011;40514;52.758;6.360;2022-12-05T11:25:53;9.73;;;5.57;;
54613;SDS011;40514;52.758;6.360;2022-12-05T11:28:36;7.97;;;4.93;;
54613;SDS011;40514;52.758;6.360;2022-12-05T11:33:37;8.32;;;5.07;;
54613;SDS011;40514;52.758;6.360;2022-12-05T11:36:10;9.65;;;5.35;;
54613;SDS011;40514;52.758;6.360;2022-12-05T11:38:37;9.27;;;5.55;;
54613;SDS011;40514;52.758;6.360;2022-12-05T11:41:11;10.07;;;5.28;;
54613;SDS011;40514;52.758;6.360;2022-12-05T11:55:19;10.43;;;5.78;;
54613;SDS011;40514;52.758;6.360;2022-12-05T12:01:04;9.07;;;5.57;;
54613;SDS011;40514;52.758;6.360;2022-12-05T12:31:19;8.17;;;5.20;;
54613;SDS011;40514;52.758;6.360;2022-12-05T12:34:10;10.15;;;5.70;;
54613;SDS011;40514;52.758;6.360;2022-12-05T12:45:36;8.63;;;5.20;;
54613;SDS011;40514;52.758;6.360;2022-12-05T12:51:10;8.07;;;5.15;;
54613;SDS011;40514;52.758;6.360;2022-12-05T12:53:52;7.72;;;4.93;;
54613;SDS011;40514;52.758;6.360;2022-12-05T13:02:39;6.88;;;4.80;;
54613;SDS011;40514;52.758;6.360;2022-12-05T13:05:17;7.00;;;4.68;;
54613;SDS011;40514;52.758;6.360;2022-12-05T13:07:57;6.82;;;4.20;;
54613;SDS011;40514;52.758;6.360;2022-12-05T13:10:42;7.20;;;4.28;;
54613;SDS011;40514;52.758;6.360;2022-12-05T13:13:19;8.02;;;4.25;;
54613;SDS011;40514;52.758;6.360;2022-12-05T13:15:59;6.22;;;3.78;;
54613;SDS011;40514;52.758;6.360;2022-12-05T13:18:26;7.30;;;3.90;;
54613;SDS011;40514;52.758;6.360;2022-12-05T13:20:58;5.90;;;3.73;;
54613;SDS011;40514;52.758;6.360;2022-12-05T13:23:35;5.80;;;3.88;;
54613;SDS011;40514;52.758;6.360;2022-12-05T13:26:10;6.85;;;3.92;;
54613;SDS011;40514;52.758;6.360;2022-12-05T13:31:13;6.20;;;3.70;;
54613;SDS011;40514;52.758;6.360;2022-12-05T13:39:01;5.32;;;3.05;;
54613;SDS011;40514;52.758;6.360;2022-12-05T13:41:54;5.15;;;2.92;;
54613;SDS011;40514;52.758;6.360;2022-12-05T13:44:40;6.57;;;3.30;;
54613;SDS011;40514;52.758;6.360;2022-12-05T13:50:28;5.53;;;3.35;;
54613;SDS011;40514;52.758;6.360;2022-12-05T13:53:02;6.55;;;4.00;;
54613;SDS011;40514;52.758;6.360;2022-12-05T13:56:23;10.32;;;6.30;;
54613;SDS011;40514;52.758;6.360;2022-12-05T13:58:49;6.80;;;4.15;;
54613;SDS011;40514;52.758;6.360;2022-12-05T14:01:39;6.85;;;3.85;;
54613;SDS011;40514;52.758;6.360;2022-12-05T14:04:17;6.15;;;3.75;;
54613;SDS011;40514;52.758;6.360;2022-12-05T14:07:07;6.70;;;3.78;;
54613;SDS011;40514;52.758;6.360;2022-12-05T14:09:47;5.45;;;3.40;;
54613;SDS011;40514;52.758;6.360;2022-12-05T14:17:25;6.60;;;4.03;;
54613;SDS011;40514;52.758;6.360;2022-12-05T14:25:25;6.43;;;3.50;;
54613;SDS011;40514;52.758;6.360;2022-12-05T14:31:04;6.50;;;3.63;;
54613;SDS011;40514;52.758;6.360;2022-12-05T14:33:45;6.10;;;3.33;;
54613;SDS011;40514;52.758;6.360;2022-12-05T14:36:28;6.75;;;3.50;;
54613;SDS011;40514;52.758;6.360;2022-12-05T14:38:55;5.65;;;3.35;;
54613;SDS011;40514;52.758;6.360;2022-12-05T14:41:31;6.13;;;3.73;;
54613;SDS011;40514;52.758;6.360;2022-12-05T14:43:59;6.90;;;3.75;;
54613;SDS011;40514;52.758;6.360;2022-12-05T14:48:56;6.30;;;3.67;;
54613;SDS011;40514;52.758;6.360;2022-12-05T14:53:54;6.72;;;3.30;;
54613;SDS011;40514;52.758;6.360;2022-12-05T14:56:49;6.10;;;3.63;;
54613;SDS011;40514;52.758;6.360;2022-12-05T14:59:22;8.02;;;3.60;;
54613;SDS011;40514;52.758;6.360;2022-12-05T15:01:55;5.97;;;3.35;;
54613;SDS011;40514;52.758;6.360;2022-12-05T15:04:31;9.00;;;4.13;;
54613;SDS011;40514;52.758;6.360;2022-12-05T15:07:03;7.20;;;3.63;;
54613;SDS011;40514;52.758;6.360;2022-12-05T15:12:36;7.30;;;3.63;;
54613;SDS011;40514;52.758;6.360;2022-12-05T15:17:48;6.32;;;4.15;;
54613;SDS011;40514;52.758;6.360;2022-12-05T15:26:16;6.43;;;3.83;;
54613;SDS011;40514;52.758;6.360;2022-12-05T15:34:12;7.63;;;4.93;;
54613;SDS011;40514;52.758;6.360;2022-12-05T15:36:44;9.32;;;4.90;;
54613;SDS011;40514;52.758;6.360;2022-12-05T15:39:22;6.95;;;4.88;;
54613;SDS011;40514;52.758;6.360;2022-12-05T15:41:50;8.20;;;4.97;;
54613;SDS011;40514;52.758;6.360;2022-12-05T15:44:17;7.90;;;5.15;;
54613;SDS011;40514;52.758;6.360;2022-12-05T15:46:44;7.60;;;4.50;;
54613;SDS011;40514;52.758;6.360;2022-12-05T15:49:23;7.93;;;5.05;;
54613;SDS011;40514;52.758;6.360;2022-12-05T15:51:52;7.03;;;4.63;;
54613;SDS011;40514;52.758;6.360;2022-12-05T15:54:26;7.63;;;4.68;;
54613;SDS011;40514;52.758;6.360;2022-12-05T15:59:41;9.18;;;4.70;;
54613;SDS011;40514;52.758;6.360;2022-12-05T16:05:21;7.45;;;4.45;;
54613;SDS011;40514;52.758;6.360;2022-12-05T16:07:55;8.60;;;4.80;;
54613;SDS011;40514;52.758;6.360;2022-12-05T16:10:21;8.40;;;4.57;;
54613;SDS011;40514;52.758;6.360;2022-12-05T16:15:19;7.90;;;4.53;;
54613;SDS011;40514;52.758;6.360;2022-12-05T16:17:52;6.82;;;4.00;;
54613;SDS011;40514;52.758;6.360;2022-12-05T16:22:52;7.07;;;4.25;;
54613;SDS011;40514;52.758;6.360;2022-12-05T16:25:24;7.00;;;3.88;;
54613;SDS011;40514;52.758;6.360;2022-12-05T16:30:33;7.90;;;4.28;;
54613;SDS011;40514;52.758;6.360;2022-12-05T16:35:34;8.35;;;4.80;;
54613;SDS011;40514;52.758;6.360;2022-12-05T16:40:35;8.50;;;4.68;;
54613;SDS011;40514;52.758;6.360;2022-12-05T16:43:05;10.57;;;4.95;;
54613;SDS011;40514;52.758;6.360;2022-12-05T16:45:42;6.93;;;4.28;;
54613;SDS011;40514;52.758;6.360;2022-12-05T16:48:13;6.32;;;4.07;;
54613;SDS011;40514;52.758;6.360;2022-12-05T16:50:40;6.68;;;3.72;;
54613;SDS011;40514;52.758;6.360;2022-12-05T16:55:32;5.57;;;3.67;;
54613;SDS011;40514;52.758;6.360;2022-12-05T16:58:01;6.93;;;3.90;;
54613;SDS011;40514;52.758;6.360;2022-12-05T17:00:30;6.88;;;3.45;;
54613;SDS011;40514;52.758;6.360;2022-12-05T17:05:22;6.32;;;3.92;;
54613;SDS011;40514;52.758;6.360;2022-12-05T17:07:49;6.85;;;3.75;;
54613;SDS011;40514;52.758;6.360;2022-12-05T17:12:41;5.85;;;3.22;;
54613;SDS011;40514;52.758;6.360;2022-12-05T17:15:12;6.38;;;3.45;;
54613;SDS011;40514;52.758;6.360;2022-12-05T17:17:41;5.88;;;3.35;;
54613;SDS011;40514;52.758;6.360;2022-12-05T17:20:07;6.03;;;3.27;;
54613;SDS011;40514;52.758;6.360;2022-12-05T17:22:33;5.83;;;3.43;;
54613;SDS011;40514;52.758;6.360;2022-12-05T17:24:58;6.40;;;3.83;;
54613;SDS011;40514;52.758;6.360;2022-12-05T17:27:24;6.67;;;4.10;;
54613;SDS011;40514;52.758;6.360;2022-12-05T17:29:50;8.00;;;5.03;;
54613;SDS011;40514;52.758;6.360;2022-12-05T17:32:16;5.97;;;3.70;;
54613;SDS011;40514;52.758;6.360;2022-12-05T17:34:41;6.43;;;3.83;;
54613;SDS011;40514;52.758;6.360;2022-12-05T17:37:07;5.73;;;3.57;;
54613;SDS011;40514;52.758;6.360;2022-12-05T17:39:32;6.50;;;3.83;;
54613;SDS011;40514;52.758;6.360;2022-12-05T17:41:58;6.07;;;3.63;;
54613;SDS011;40514;52.758;6.360;2022-12-05T17:44:23;7.17;;;3.40;;
54613;SDS011;40514;52.758;6.360;2022-12-05T17:46:49;6.07;;;3.80;;
54613;SDS011;40514;52.758;6.360;2022-12-05T17:49:15;5.90;;;3.70;;
54613;SDS011;40514;52.758;6.360;2022-12-05T17:51:41;5.88;;;3.60;;